METAR v bližini

 

LJLJ - Ljubljana/Brnik, Slovenia
Oddaljenost od postaje: W 41km
Podatki zajeti: 20/10/2021 14:30
Pretežno oblačno
Pretežno oblačno
 Veter iz smeri SW
Veter: SW 22 km/h, Sunek vetra: 41 km/h
Temperatura: 16°C
Rosišče: 8°C
Vlažnost: 59%
Tlak: 1022 hPa
Oblačnost: Pretežno oblačno
Vidljivost: 10 km
Podrobnosti o oblakih: Rahlo oblačno 91 m
Pretežno oblačno 7620 m
2021/10/20 12:30 LJLJ 201230Z 22012G22KT 190V280 9999 FEW003 BKN250 16/08 Q1022 NOSIG
LJMB - Maribor, Slovenia
Oddaljenost od postaje: NE 63km
Podatki zajeti: 20/10/2021 14:30
Jasno
Jasno
 Veter iz smeri SSW
Veter: SSW 24 km/h
Temperatura: 20°C
Rosišče: 8°C
Vlažnost: 46%
Tlak: 1017 hPa
Stanje: Jasno
Vidljivost: večja od 10 km
2021/10/20 12:30 LJMB 201230Z 21013KT 180V240 CAVOK 20/08 Q1017
 
LJPZ - Portoroz, Slovenia
Oddaljenost od postaje: SW 130km
Podatki zajeti: 20/10/2021 14:30
Rahlo oblačno
Rahlo oblačno
 Veter iz smeri SW
Veter: SW 15 km/h
Temperatura: 19°C
Rosišče: 13°C
Vlažnost: 68%
Tlak: 1024 hPa
Oblačnost: Rahlo oblačno
Vidljivost: 10 km
Podrobnosti o oblakih: Rahlo oblačno 792 m
2021/10/20 12:30 LJPZ 201230Z 22008KT 9999 FEW026 19/13 Q1024
LJCE - Cerklje, Slovenia
Oddaljenost od postaje: ESE 49km
Podatki zajeti: 20/10/2021 14:30
Jasno
Jasno
 Veter iz smeri SW
Veter: SW 17 km/h
Temperatura: 21°C
Rosišče: 10°C
Vlažnost: 50%
Tlak: 1020 hPa
Stanje: Jasno
Vidljivost: večja od 10 km
2021/10/20 12:30 LJCE 201230Z 23009KT CAVOK 21/10 Q1020 RMK BLU
 
LDZA - Zagreb/Pleso, Croatia
Oddaljenost od postaje: ESE 96km
Podatki zajeti: 20/10/2021 14:30
Jasno
Jasno
 Veter iz smeri WSW
Veter: WSW 15 km/h
Temperatura: 22°C
Rosišče: 7°C
Vlažnost: 38%
Tlak: 1020 hPa
Stanje: Jasno
Vidljivost: večja od 10 km
2021/10/20 12:30 LDZA 201230Z 24008KT 200V260 CAVOK 22/07 Q1020 TEMPO 24012KT
LDRI - Rijeka/Omisalj, Croatia
Oddaljenost od postaje: SSW 109km
Podatki zajeti: 20/10/2021 14:30
Rahlo oblačno
Rahlo oblačno
 Veter iz smeri spremenljiv
Veter: spremenljiv 7 km/h
Temperatura: 18°C
Rosišče: 11°C
Vlažnost: 64%
Tlak: 1025 hPa
Oblačnost: Rahlo oblačno
Vidljivost: 10 km
Podrobnosti o oblakih: Rahlo oblačno 1219 m
2021/10/20 12:30 LDRI 201230Z VRB04KT 9999 FEW040 18/11 Q1025
 
LDPL - Pula, Croatia
Oddaljenost od postaje: SSW 164km
Podatki zajeti: 20/10/2021 14:30
Rahlo oblačno
Rahlo oblačno
 Veter iz smeri S
Veter: S 11 km/h
Temperatura: 18°C
Rosišče: 12°C
Vlažnost: 68%
Tlak: 1025 hPa
Oblačnost: Rahlo oblačno
Vidljivost: 10 km
Podrobnosti o oblakih: Rahlo oblačno 732 m
2021/10/20 12:30 LDPL 201230Z 18006KT 110V260 9999 FEW024 18/12 Q1025 NOSIG
LOWK - Klagenfurt(Civ/M, Austria
Oddaljenost od postaje: NW 76km
Podatki zajeti: 20/10/2021 14:20
Rahlo oblačno
Rahlo oblačno
 Veter iz smeri E
Veter: E 6 km/h
Temperatura: 17°C
Rosišče: 9°C
Vlažnost: 59%
Tlak: 1019 hPa
Oblačnost: Rahlo oblačno
Vidljivost: 10 km
Podrobnosti o oblakih: Rahlo oblačno 1524 m
2021/10/20 12:20 LOWK 201220Z 09003KT 020V160 9999 FEW050 17/09 Q1019 NOSIG
 
LOWG - Graz (mil/Civ), Austria
Oddaljenost od postaje: NNE 100km
Podatki zajeti: 20/10/2021 14:20
Jasno
Jasno
 Veter iz smeri SSE
Veter: SSE 13 km/h
Temperatura: 18°C
Rosišče: 10°C
Vlažnost: 60%
Tlak: 1017 hPa
Stanje: Jasno
Vidljivost: večja od 10 km
2021/10/20 12:20 LOWG 201220Z 15007KT 120V180 CAVOK 18/10 Q1017 NOSIG
LOAN - Wr.neustadt East, Austria
Oddaljenost od postaje: NNE 212km
Podatki zajeti: 20/10/2021 14:00
Jasno
Jasno
 Veter iz smeri SSE
Veter: SSE 22 km/h
Stanje: Jasno
Vidljivost: večja od 10 km
2021/10/20 12:00 LOAN 201200Z 15012KT CAVOK
 
LIPQ - Ronchi Legionari, Italy
Oddaljenost od postaje: SW 35km
Podatki zajeti: 20/10/2021 14:20
Meglica, Pretežno oblačno
Meglica, Pretežno oblačno
 Veter iz smeri SSE
Veter: SSE 9 km/h
Temperatura: 17°C
Rosišče: 13°C
Vlažnost: 77%
Tlak: 1024 hPa
Stanje: Meglica
Oblačnost: Pretežno oblačno
Vidljivost: 5 km
Podrobnosti o oblakih: Pretežno oblačno 701 m
2021/10/20 12:20 LIPQ 201220Z AUTO 15005KT 4500 BR BKN023/// 17/13 Q1024
LIVT - Trieste, Italy
Oddaljenost od postaje: WSW 109km
Podatki zajeti: 20/10/2021 13:55
Meglica, Oblačno
Meglica, Oblačno
 Veter iz smeri calm
Veter: Calm
Temperatura: 17°C
Rosišče: 13°C
Vlažnost: 77%
Tlak: 1024 hPa
Stanje: Meglica
Oblačnost: Oblačno
Vidljivost: 4 km
Podrobnosti o oblakih: Delno oblačno 610 m
Oblačno 914 m
2021/10/20 11:55 LIVT 201155Z 00000KT 4000 BR SCT020 OVC030 17/13 Q1024 RMK OVC QUK 0 QUL 0 VIS MAR 4 KM VIS MIN 4000
 
LIVO - Tarvisio, Italy
Oddaljenost od postaje: NNW 49km
Podatki zajeti: 20/10/2021 13:55
Jasno
Jasno
 Veter iz smeri W
Veter: W 19 km/h
Temperatura: 17°C
Rosišče: 8°C
Vlažnost: 56%
Tlak: 1022 hPa
Stanje: Jasno
Vidljivost: večja od 10 km
2021/10/20 11:55 LIVO 201155Z 27010KT CAVOK 17/08 Q1022 RMK SCT SCT230 VIS MIN 9999
LIPZ - Venezia/Tessera, Italy
Oddaljenost od postaje: WSW 217km
Podatki zajeti: 20/10/2021 14:20
Rahlo oblačno
Rahlo oblačno
 Veter iz smeri SSE
Veter: SSE 7 km/h
Temperatura: 17°C
Rosišče: 12°C
Vlažnost: 73%
Tlak: 1024 hPa
Oblačnost: Rahlo oblačno
Vidljivost: 6 km
Podrobnosti o oblakih: Rahlo oblačno 1524 m
2021/10/20 12:20 LIPZ 201220Z 15004KT 120V180 6000 FEW050 17/12 Q1024 NOSIG
 
LHSM - Balaton, Hungary
Oddaljenost od postaje: ENE 177km
Podatki zajeti: 20/10/2021 14:15
Jasno
Jasno
 Veter iz smeri S
Veter: S 24 km/h
Temperatura: 19°C
Rosišče: 8°C
Vlažnost: 49%
Tlak: 1019 hPa
Oblačnost: Jasno
Vidljivost: 9 km
2021/10/20 12:15 LHSM 201215Z AUTO 19013KT 9000 NCD 19/08 Q1019 NOSIG